Time;durP1;ratioP1;P1;durP2;ratioP2;P2;SDS_P1;SDS_P2;PMS_P1;PMS_P2;Temp;Humidity;BMP_temperature;BMP_pressure;BME280_temperature;BME280_humidity;BME280_pressure;Samples;Min_cycle;Max_cycle;Signal;HPM_P1;HPM_P2
2022/07/12 00:01:52;;;;;;;3.83;2.60;;;18.60;99.90;;;;;;5078113;28;20111;-73
2022/07/12 00:04:18;;;;;;;3.88;2.25;;;18.70;99.90;;;;;;5076708;28;20119;-73
2022/07/12 00:06:44;;;;;;;3.25;2.47;;;18.80;99.90;;;;;;5110967;28;20123;-73
2022/07/12 00:09:10;;;;;;;3.33;1.95;;;18.80;99.90;;;;;;5077726;28;20047;-73
2022/07/12 00:11:36;;;;;;;3.50;2.30;;;18.80;99.90;;;;;;5077985;28;20040;-73
2022/07/12 00:14:04;;;;;;;2.60;2.20;;;18.80;99.90;;;;;;5077960;28;20040;-73
2022/07/12 00:16:29;;;;;;;5.55;2.30;;;18.80;99.90;;;;;;5076625;28;20048;-73
2022/07/12 00:18:55;;;;;;;4.18;2.20;;;18.80;99.90;;;;;;5077880;28;20055;-74
2022/07/12 00:21:21;;;;;;;2.38;1.73;;;18.80;99.90;;;;;;5077114;28;20098;-74
2022/07/12 00:23:46;;;;;;;3.88;2.78;;;18.80;99.90;;;;;;5110799;28;20048;-74
2022/07/12 00:26:12;;;;;;;2.67;2.05;;;18.80;99.90;;;;;;5110209;28;20056;-73
2022/07/12 00:28:38;;;;;;;2.90;2.25;;;18.80;99.90;;;;;;5077748;28;20041;-73
2022/07/12 00:31:04;;;;;;;3.55;2.20;;;18.90;99.90;;;;;;5110144;28;20036;-73
2022/07/12 00:33:30;;;;;;;5.65;2.67;;;18.80;99.90;;;;;;5077547;28;20075;-74
2022/07/12 00:35:56;;;;;;;3.13;2.47;;;18.80;99.90;;;;;;5077551;28;20068;-74
2022/07/12 00:38:21;;;;;;;2.40;2.15;;;18.80;99.90;;;;;;5076200;28;20044;-74
2022/07/12 00:40:47;;;;;;;3.20;2.35;;;18.80;99.90;;;;;;5076874;28;20337;-74
2022/07/12 00:43:13;;;;;;;4.55;2.30;;;18.80;99.90;;;;;;5109744;28;20440;-73
2022/07/12 00:45:39;;;;;;;3.22;2.08;;;18.80;99.90;;;;;;5077357;28;20039;-73
2022/07/12 00:48:05;;;;;;;2.97;1.80;;;18.80;99.90;;;;;;5077338;28;20037;-73
2022/07/12 00:50:31;;;;;;;3.33;2.53;;;18.80;99.90;;;;;;5109494;28;20037;-74
2022/07/12 00:52:58;;;;;;;2.70;2.13;;;18.80;99.90;;;;;;5109996;28;20429;-74
2022/07/12 00:55:24;;;;;;;2.40;1.85;;;18.80;99.90;;;;;;5076175;28;20436;-73
2022/07/12 00:57:51;;;;;;;3.58;1.88;;;18.80;99.90;;;;;;5110119;28;20044;-73
2022/07/12 01:00:20;;;;;;;2.60;2.15;;;18.70;99.90;;;;;;5076727;28;20045;-74
2022/07/12 01:02:47;;;;;;;2.72;2.03;;;18.70;99.90;;;;;;5077079;28;20036;-74
2022/07/12 01:05:13;;;;;;;3.17;2.85;;;18.80;99.90;;;;;;5076630;28;20040;-75
2022/07/12 01:07:39;;;;;;;3.00;2.20;;;18.80;99.90;;;;;;5109870;28;20353;-74
2022/07/12 01:10:06;;;;;;;4.65;2.88;;;18.70;99.90;;;;;;5109806;28;20047;-74
2022/07/12 01:12:32;;;;;;;3.33;2.42;;;18.60;99.90;;;;;;5076833;28;20409;-74
2022/07/12 01:14:58;;;;;;;3.08;2.40;;;18.70;99.90;;;;;;5109428;28;20443;-74
2022/07/12 01:17:26;;;;;;;5.13;2.10;;;18.70;99.90;;;;;;5076729;28;20051;-73
2022/07/12 01:19:54;;;;;;;2.30;1.92;;;18.70;99.90;;;;;;5076819;28;20101;-74
2022/07/12 01:22:24;;;;;;;2.70;2.33;;;18.70;99.90;;;;;;5076212;28;20044;-74
2022/07/12 01:24:50;;;;;;;3.13;2.40;;;18.60;99.90;;;;;;5076482;28;20053;-73
2022/07/12 01:27:17;;;;;;;3.67;2.30;;;18.60;99.90;;;;;;5076492;28;20330;-74
2022/07/12 01:29:43;;;;;;;2.50;2.10;;;18.60;99.90;;;;;;5076459;28;20395;-74
2022/07/12 01:32:24;;;;;;;3.25;2.35;;;18.70;99.90;;;;;;5076375;28;20059;-75
2022/07/12 01:34:55;;;;;;;5.07;2.30;;;18.70;99.90;;;;;;5109264;28;20422;-74
2022/07/12 01:37:23;;;;;;;2.45;1.92;;;18.60;99.90;;;;;;5076779;28;20036;-74
2022/07/12 01:39:54;;;;;;;3.33;2.00;;;18.60;99.90;;;;;;5076491;28;20067;-74
2022/07/12 01:42:24;;;;;;;3.45;2.00;;;18.60;99.90;;;;;;5076626;28;20048;-73
2022/07/12 01:44:51;;;;;;;4.60;2.50;;;18.60;99.90;;;;;;5076174;28;20041;-74
2022/07/12 01:47:18;;;;;;;4.40;2.50;;;18.50;99.90;;;;;;5075189;28;20047;-74
2022/07/12 01:49:44;;;;;;;3.58;2.60;;;18.50;99.90;;;;;;5109546;28;20416;-74
2022/07/12 01:52:10;;;;;;;3.00;2.58;;;18.50;99.90;;;;;;5076192;28;20033;-73
2022/07/12 01:54:36;;;;;;;4.90;2.65;;;18.50;99.90;;;;;;5113506;28;20044;-74
2022/07/12 01:57:04;;;;;;;4.10;1.92;;;18.50;99.90;;;;;;5079417;28;20048;-73
2022/07/12 01:59:30;;;;;;;3.38;2.90;;;18.50;99.90;;;;;;5113119;28;20048;-73
2022/07/12 02:01:56;;;;;;;2.72;2.13;;;18.60;99.90;;;;;;5079448;28;20040;-74
2022/07/12 02:04:22;;;;;;;3.17;2.50;;;18.60;99.90;;;;;;5080446;28;20074;-73
2022/07/12 02:06:48;;;;;;;2.80;2.40;;;18.60;99.90;;;;;;5080157;28;20113;-73
2022/07/12 02:09:14;;;;;;;3.67;3.30;;;18.50;99.90;;;;;;5080363;28;20040;-73
2022/07/12 02:11:41;;;;;;;3.78;3.33;;;17.90;99.90;;;;;;5080354;28;20090;-73
2022/07/12 02:14:07;;;;;;;4.45;3.33;;;18.00;99.90;;;;;;5079988;28;20093;-73
2022/07/12 02:16:33;;;;;;;3.80;3.00;;;18.10;99.90;;;;;;5080251;28;20043;-73
2022/07/12 02:18:59;;;;;;;5.32;2.65;;;18.20;99.90;;;;;;5112927;28;20380;-73
2022/07/12 02:21:25;;;;;;;4.45;2.60;;;18.20;99.90;;;;;;5078794;28;20041;-73
2022/07/12 02:23:50;;;;;;;4.72;2.80;;;18.30;99.90;;;;;;5079795;28;20059;-74
2022/07/12 02:26:16;;;;;;;4.90;2.90;;;18.30;99.90;;;;;;5112501;28;20137;-74
2022/07/12 02:28:42;;;;;;;3.35;2.80;;;18.30;99.90;;;;;;5080044;28;20041;-73
2022/07/12 02:31:08;;;;;;;6.32;4.38;;;18.30;99.90;;;;;;5079968;28;20037;-73
2022/07/12 02:33:34;;;;;;;4.13;3.60;;;18.20;99.90;;;;;;5095723;28;20036;-73
2022/07/12 02:36:00;;;;;;;5.40;4.65;;;18.10;99.90;;;;;;5079694;28;20042;-73
2022/07/12 02:38:26;;;;;;;9.13;5.10;;;18.10;99.90;;;;;;5079729;28;20490;-73
2022/07/12 02:40:54;;;;;;;5.07;4.13;;;18.10;99.90;;;;;;5079513;28;20039;-73
2022/07/12 02:43:28;;;;;;;6.55;3.92;;;18.20;99.90;;;;;;5112520;28;20429;-73
2022/07/12 02:45:56;;;;;;;6.28;3.92;;;18.20;99.90;;;;;;5112412;28;20036;-73
2022/07/12 02:48:22;;;;;;;4.50;3.75;;;18.20;99.90;;;;;;5078309;28;20170;-73
2022/07/12 02:50:48;;;;;;;4.63;3.88;;;18.30;99.90;;;;;;5079187;28;20041;-73
2022/07/12 02:53:15;;;;;;;7.40;5.25;;;18.20;99.90;;;;;;5112374;28;20040;-73
2022/07/12 02:55:41;;;;;;;5.53;4.75;;;18.20;99.90;;;;;;5079225;28;20044;-73
2022/07/12 02:58:07;;;;;;;6.22;4.72;;;18.00;99.90;;;;;;5111974;28;20049;-73
2022/07/12 03:00:34;;;;;;;6.03;4.70;;;18.00;99.90;;;;;;5079596;28;20048;-73
2022/07/12 03:03:01;;;;;;;5.28;4.13;;;18.00;99.90;;;;;;5079434;28;20072;-73
2022/07/12 03:05:27;;;;;;;7.00;5.00;;;18.00;99.90;;;;;;5078135;28;20131;-73
2022/07/12 03:07:52;;;;;;;5.95;4.68;;;17.90;99.90;;;;;;5079196;28;20119;-73
2022/07/12 03:10:18;;;;;;;6.05;5.25;;;17.90;99.90;;;;;;5079236;28;20418;-73
2022/07/12 03:12:44;;;;;;;8.30;6.38;;;17.90;99.90;;;;;;5111758;28;20119;-73
2022/07/12 03:15:10;;;;;;;6.20;5.00;;;18.00;99.90;;;;;;5079032;28;20036;-73
2022/07/12 03:17:36;;;;;;;6.85;5.63;;;18.00;99.90;;;;;;5094923;28;20123;-73
2022/07/12 03:20:05;;;;;;;6.70;5.32;;;17.90;99.90;;;;;;5078893;28;20116;-73
2022/07/12 03:22:31;;;;;;;6.93;5.25;;;17.70;99.90;;;;;;5078407;28;20036;-73
2022/07/12 03:24:56;;;;;;;7.18;5.55;;;17.70;99.90;;;;;;5078480;28;20056;-73
2022/07/12 03:27:22;;;;;;;6.95;5.45;;;17.70;99.90;;;;;;5078945;28;20041;-73
2022/07/12 03:29:48;;;;;;;8.23;5.97;;;17.70;99.90;;;;;;5078822;28;20068;-73
2022/07/12 03:32:13;;;;;;;7.18;5.38;;;17.80;99.90;;;;;;5077735;28;20037;-73
2022/07/12 03:34:39;;;;;;;9.07;6.60;;;17.80;99.90;;;;;;5078723;28;20047;-74
2022/07/12 03:37:05;;;;;;;11.30;8.05;;;17.80;99.90;;;;;;5078693;28;20040;-73
2022/07/12 03:39:30;;;;;;;9.48;6.72;;;17.60;99.90;;;;;;5078538;28;20322;-73
2022/07/12 03:41:56;;;;;;;11.77;7.68;;;17.60;99.90;;;;;;5078520;28;20059;-73
2022/07/12 03:44:22;;;;;;;11.32;7.60;;;17.60;99.90;;;;;;5078479;28;20037;-73
2022/07/12 03:46:48;;;;;;;11.02;7.78;;;17.60;99.90;;;;;;5078518;28;20038;-73
2022/07/12 03:49:14;;;;;;;13.77;8.77;;;17.60;99.90;;;;;;5078597;28;20421;-73
2022/07/12 03:51:40;;;;;;;14.68;7.88;;;17.60;99.90;;;;;;5077811;28;20032;-73
2022/07/12 03:54:08;;;;;;;14.60;8.52;;;17.40;99.90;;;;;;5078192;28;20329;-73
2022/07/12 03:59:19;;;;;;;18.85;9.23;;;17.10;99.90;;;;;;5078336;28;20047;-73
2022/07/12 04:01:45;;;;;;;19.40;8.93;;;17.30;99.90;;;;;;5078342;28;20053;-73
2022/07/12 04:04:10;;;;;;;15.27;8.35;;;17.40;99.90;;;;;;5077928;28;20072;-73
2022/07/12 04:06:36;;;;;;;11.57;7.85;;;17.60;99.90;;;;;;5076902;28;20044;-74
2022/07/12 04:09:03;;;;;;;11.90;7.88;;;17.60;99.90;;;;;;5110751;28;20080;-73
2022/07/12 04:11:29;;;;;;;11.95;7.63;;;17.80;99.90;;;;;;5110718;28;20045;-74
2022/07/12 04:13:55;;;;;;;10.07;6.88;;;17.70;99.90;;;;;;5077883;28;20052;-73
2022/07/12 04:16:20;;;;;;;22.75;8.95;;;17.70;99.90;;;;;;5077493;28;20044;-73
2022/07/12 04:18:46;;;;;;;14.80;7.68;;;17.60;99.90;;;;;;5077029;28;20041;-73
2022/07/12 04:21:12;;;;;;;10.43;7.22;;;17.60;99.90;;;;;;5077302;28;20044;-73
2022/07/12 04:23:38;;;;;;;14.27;6.97;;;17.70;99.90;;;;;;5077584;28;20048;-73
2022/07/12 04:26:04;;;;;;;17.25;7.13;;;17.70;99.90;;;;;;5077351;28;20076;-73
2022/07/12 04:28:29;;;;;;;7.70;5.95;;;17.70;99.90;;;;;;5077698;28;20306;-73
2022/07/12 04:30:55;;;;;;;17.90;7.13;;;17.70;99.90;;;;;;5110319;28;20072;-73
2022/07/12 04:33:21;;;;;;;8.45;6.00;;;17.60;99.90;;;;;;5110287;28;20052;-73
2022/07/12 04:35:47;;;;;;;6.72;5.15;;;17.60;99.90;;;;;;5076388;28;20044;-73
2022/07/12 04:38:12;;;;;;;7.88;4.95;;;17.50;99.90;;;;;;5077586;28;20041;-73
2022/07/12 04:40:38;;;;;;;7.20;5.28;;;17.50;99.90;;;;;;5077289;28;20036;-73
2022/07/12 04:43:03;;;;;;;6.95;5.47;;;17.50;99.90;;;;;;5059478;28;20456;-75
2022/07/12 04:45:29;;;;;;;17.20;6.20;;;17.60;99.90;;;;;;5077358;28;20334;-73
2022/07/12 04:47:55;;;;;;;7.70;5.75;;;17.60;99.90;;;;;;5077289;28;20164;-74
2022/07/12 04:50:20;;;;;;;6.75;5.45;;;17.70;99.90;;;;;;5076048;28;20080;-73
2022/07/12 04:52:46;;;;;;;6.53;5.03;;;17.80;99.90;;;;;;5075807;28;20048;-73
2022/07/12 04:55:12;;;;;;;7.63;5.57;;;17.90;99.90;;;;;;5077111;28;20040;-73
2022/07/12 04:57:37;;;;;;;8.93;5.40;;;18.00;99.90;;;;;;5076993;28;20123;-73
2022/07/12 05:00:05;;;;;;;16.27;6.10;;;18.00;99.90;;;;;;5076994;28;20090;-73
2022/07/12 05:02:32;;;;;;;13.38;5.53;;;17.80;99.90;;;;;;5076800;28;20037;-73
2022/07/12 05:04:58;;;;;;;7.30;5.25;;;17.80;99.90;;;;;;5109740;28;20059;-74
2022/07/12 05:07:23;;;;;;;6.93;5.78;;;17.70;99.90;;;;;;5077123;28;20418;-73
2022/07/12 05:09:49;;;;;;;9.30;5.57;;;17.80;99.90;;;;;;5076680;28;20040;-73
2022/07/12 05:12:15;;;;;;;7.90;6.00;;;17.80;99.90;;;;;;5075945;28;20098;-73
2022/07/12 05:14:40;;;;;;;8.15;6.15;;;17.90;99.90;;;;;;5109749;28;20044;-73
2022/07/12 05:17:06;;;;;;;6.55;4.82;;;17.90;99.90;;;;;;5076846;28;20329;-73
2022/07/12 05:19:32;;;;;;;10.93;6.70;;;17.90;99.90;;;;;;5109548;28;20329;-73
2022/07/12 05:21:57;;;;;;;7.93;5.80;;;18.00;99.90;;;;;;5109287;28;20437;-73
2022/07/12 05:24:23;;;;;;;20.05;7.10;;;18.00;99.90;;;;;;5076413;28;20041;-73
2022/07/12 05:26:48;;;;;;;18.40;7.25;;;17.90;99.90;;;;;;5076410;28;20429;-73
2022/07/12 05:29:14;;;;;;;7.50;5.63;;;17.90;99.90;;;;;;5076528;28;20067;-72
2022/07/12 05:31:40;;;;;;;9.25;5.72;;;17.90;99.90;;;;;;5058718;28;20060;-73
2022/07/12 05:34:05;;;;;;;7.05;5.13;;;17.80;99.90;;;;;;5076691;28;20036;-74
2022/07/12 05:36:31;;;;;;;9.32;5.30;;;17.90;99.90;;;;;;5076531;28;20036;-73
2022/07/12 05:38:57;;;;;;;6.75;5.32;;;18.00;99.90;;;;;;5109308;28;20053;-73
2022/07/12 05:41:23;;;;;;;7.18;5.30;;;17.90;99.90;;;;;;5076372;28;20051;-73
2022/07/12 05:43:48;;;;;;;6.13;4.95;;;17.90;99.90;;;;;;5075359;28;20048;-73
2022/07/12 05:46:14;;;;;;;5.47;4.47;;;18.00;99.90;;;;;;5109004;28;20040;-73
2022/07/12 05:48:40;;;;;;;6.68;4.95;;;18.10;99.90;;;;;;5076483;28;20442;-74
2022/07/12 05:53:50;;;;;;;7.15;4.65;;;18.30;99.90;;;;;;5076135;28;20383;-73
2022/07/12 05:56:16;;;;;;;6.18;4.40;;;18.50;99.90;;;;;;5076503;28;20048;-73
2022/07/12 05:58:42;;;;;;;5.70;4.55;;;18.40;99.90;;;;;;5076179;28;20037;-73
2022/07/12 06:01:08;;;;;;;7.47;4.85;;;18.50;99.90;;;;;;5076156;28;20059;-73
2022/07/12 06:03:34;;;;;;;4.75;3.83;;;18.60;99.90;;;;;;5108865;28;20048;-73
2022/07/12 06:05:59;;;;;;;9.05;5.18;;;18.70;99.90;;;;;;5075928;28;20036;-73
2022/07/12 06:08:25;;;;;;;7.78;4.57;;;18.60;99.90;;;;;;5108822;28;20049;-73
2022/07/12 06:10:51;;;;;;;5.70;4.78;;;18.60;99.90;;;;;;5075323;28;20044;-73
2022/07/12 06:13:17;;;;;;;5.65;4.10;;;18.70;99.90;;;;;;5076394;28;20051;-73
2022/07/12 06:15:42;;;;;;;3.92;3.33;;;18.80;99.90;;;;;;5075979;28;20044;-73
2022/07/12 06:18:08;;;;;;;9.32;3.88;;;18.80;99.90;;;;;;5076024;28;20102;-73
2022/07/12 06:20:34;;;;;;;5.72;4.28;;;18.80;99.90;;;;;;5108696;28;20310;-73
2022/07/12 06:22:59;;;;;;;6.40;4.00;;;18.80;99.90;;;;;;5075509;28;20037;-73
2022/07/12 06:25:25;;;;;;;6.00;4.20;;;18.90;99.90;;;;;;5075794;28;20433;-73
2022/07/12 06:27:51;;;;;;;5.38;3.65;;;18.80;99.90;;;;;;5075906;28;20121;-73
2022/07/12 06:30:21;;;;;;;4.50;3.40;;;18.80;99.90;;;;;;5108740;28;20047;-73
2022/07/12 06:32:48;;;;;;;4.53;3.58;;;18.90;99.90;;;;;;5108571;28;20048;-73
2022/07/12 06:35:14;;;;;;;5.35;3.40;;;18.90;99.90;;;;;;5075974;28;20051;-73
2022/07/12 06:37:41;;;;;;;6.07;3.42;;;19.00;99.90;;;;;;5075039;28;20072;-73
2022/07/12 06:40:07;;;;;;;5.30;3.40;;;19.00;99.90;;;;;;5111850;28;20052;-73
2022/07/12 06:42:33;;;;;;;4.47;3.10;;;19.30;99.90;;;;;;5079683;28;20059;-73
2022/07/12 06:44:59;;;;;;;4.53;3.65;;;19.30;99.90;;;;;;5112105;28;20083;-74
2022/07/12 06:47:25;;;;;;;5.72;3.50;;;19.40;99.90;;;;;;5079711;28;20354;-73
2022/07/12 06:49:51;;;;;;;4.43;3.20;;;19.40;99.90;;;;;;5079280;28;20036;-73
2022/07/12 06:52:17;;;;;;;4.05;2.83;;;19.50;99.90;;;;;;5078767;28;20040;-73
2022/07/12 06:54:43;;;;;;;4.10;3.22;;;19.50;99.90;;;;;;5079533;28;20041;-73
2022/07/12 06:57:08;;;;;;;4.30;3.00;;;19.50;99.90;;;;;;5079352;28;20310;-73
2022/07/12 06:59:34;;;;;;;3.47;2.92;;;19.40;99.90;;;;;;5079067;28;20158;-72
2022/07/12 07:01:59;;;;;;;3.72;2.92;;;19.40;99.90;;;;;;5079063;28;20045;-73
2022/07/12 07:04:25;;;;;;;3.65;2.35;;;19.50;99.90;;;;;;5112178;28;20094;-73
2022/07/12 07:06:51;;;;;;;3.35;2.53;;;19.60;99.90;;;;;;5079208;28;20044;-73
2022/07/12 07:09:17;;;;;;;4.43;2.65;;;19.80;99.90;;;;;;5112322;28;20051;-73
2022/07/12 07:11:43;;;;;;;3.65;2.90;;;19.80;99.90;;;;;;5078945;28;20024;-69
2022/07/12 07:14:09;;;;;;;5.05;3.10;;;19.90;99.90;;;;;;5112094;28;20136;-70
2022/07/12 07:16:35;;;;;;;3.58;2.65;;;20.10;99.90;;;;;;5078613;28;20465;-69
2022/07/12 07:19:02;;;;;;;3.60;2.80;;;20.00;99.90;;;;;;5078822;28;20102;-68
2022/07/12 07:21:28;;;;;;;3.40;2.60;;;20.00;99.90;;;;;;5078248;28;20048;-68
2022/07/12 07:23:55;;;;;;;4.05;2.83;;;20.20;99.90;;;;;;5078800;28;20341;-68
2022/07/12 07:26:21;;;;;;;3.20;2.75;;;20.30;99.90;;;;;;5078534;28;20087;-68
2022/07/12 07:31:34;;;;;;;3.63;2.75;;;20.50;99.90;;;;;;5077931;28;20113;-68
2022/07/12 07:34:01;;;;;;;4.63;2.70;;;20.70;99.90;;;;;;5078526;28;20051;-68
2022/07/12 07:36:26;;;;;;;3.47;2.70;;;20.70;99.90;;;;;;5078882;28;20074;-68
2022/07/12 07:38:52;;;;;;;6.47;2.88;;;20.80;99.90;;;;;;5111297;28;20052;-68
2022/07/12 07:41:18;;;;;;;5.53;2.60;;;20.90;99.90;;;;;;5077608;28;20044;-69
2022/07/12 07:43:43;;;;;;;4.68;3.00;;;21.00;99.90;;;;;;5078318;28;20086;-69
2022/07/12 07:46:09;;;;;;;3.85;2.65;;;21.00;99.90;;;;;;5078469;28;20044;-68
2022/07/12 07:48:35;;;;;;;4.20;2.60;;;20.90;99.90;;;;;;5078453;28;20374;-69
2022/07/12 07:51:00;;;;;;;6.35;3.00;;;21.10;99.90;;;;;;5077401;28;20107;-70
2022/07/12 07:53:26;;;;;;;4.18;2.80;;;21.20;99.90;;;;;;5078350;28;20115;-71
2022/07/12 07:55:52;;;;;;;3.35;2.95;;;21.20;99.90;;;;;;5079989;28;20123;-71
2022/07/12 07:58:17;;;;;;;4.35;2.90;;;21.40;99.90;;;;;;5080884;28;20044;-71
2022/07/12 08:00:43;;;;;;;4.25;3.33;;;21.50;99.90;;;;;;5110834;28;20094;-69
2022/07/12 08:03:09;;;;;;;5.30;2.72;;;21.60;99.90;;;;;;5078237;28;20115;-69
2022/07/12 08:05:34;;;;;;;4.38;2.92;;;21.60;99.90;;;;;;5093973;28;20048;-70
2022/07/12 08:08:00;;;;;;;4.95;2.50;;;21.60;99.90;;;;;;5077971;28;20036;-69
2022/07/12 08:10:26;;;;;;;4.75;2.72;;;21.60;99.90;;;;;;5078243;28;20044;-69
2022/07/12 08:12:52;;;;;;;3.10;2.40;;;21.70;99.90;;;;;;5077931;28;20048;-70
2022/07/12 08:15:18;;;;;;;4.82;2.80;;;21.80;99.90;;;;;;5110657;28;20337;-69
2022/07/12 08:17:43;;;;;;;3.95;2.70;;;22.00;99.90;;;;;;5077965;28;20118;-68
2022/07/12 08:20:09;;;;;;;3.45;2.85;;;22.10;99.90;;;;;;5077944;28;20052;-69
2022/07/12 08:22:46;;;;;;;2.67;2.38;;;22.30;99.90;;;;;;5077231;28;20047;-68
2022/07/12 08:25:14;;;;;;;5.25;2.80;;;22.40;99.90;;;;;;5077191;28;20060;-69
2022/07/12 08:27:39;;;;;;;2.88;2.40;;;22.40;99.90;;;;;;5077768;28;20105;-68
2022/07/12 08:30:06;;;;;;;4.32;2.38;;;22.60;99.90;;;;;;5077552;28;20033;-68
2022/07/12 08:32:32;;;;;;;3.20;2.33;;;22.50;99.90;;;;;;5077418;28;20071;-68
2022/07/12 08:34:58;;;;;;;2.80;2.10;;;22.50;99.90;;;;;;5077584;28;20080;-69
2022/07/12 08:37:23;;;;;;;2.83;2.50;;;22.60;99.90;;;;;;5110321;28;20044;-69
2022/07/12 08:39:49;;;;;;;4.55;2.65;;;22.70;99.90;;;;;;5077184;28;20149;-68
2022/07/12 08:42:16;;;;;;;2.58;2.13;;;22.70;99.90;;;;;;5077095;28;20048;-68
2022/07/12 08:44:43;;;;;;;3.33;2.35;;;22.40;99.90;;;;;;5077383;28;20041;-68
2022/07/12 08:47:09;;;;;;;3.78;2.60;;;22.40;99.90;;;;;;5110241;28;20395;-67
2022/07/12 08:49:36;;;;;;;2.65;2.03;;;22.50;99.90;;;;;;5076075;28;20067;-68
2022/07/12 08:52:38;;;;;;;2.95;2.50;;;22.70;99.90;;;;;;5076585;28;20098;-69
2022/07/12 08:55:21;;;;;;;5.00;3.95;;;22.80;99.90;;;;;;5018584;28;20331;-69
2022/07/12 08:57:49;;;;;;;4.95;3.92;;;22.60;99.90;;;;;;5073640;28;20056;-69
2022/07/12 09:00:15;;;;;;;3.10;2.47;;;22.70;99.90;;;;;;5076948;28;20054;-69
2022/07/12 09:03:01;;;;;;;3.53;2.10;;;22.90;99.90;;;;;;5076057;28;20119;-69
2022/07/12 09:05:28;;;;;;;2.65;2.30;;;23.10;99.90;;;;;;5076825;28;20445;-69
2022/07/12 09:08:14;;;;;;;2.40;2.20;;;23.10;99.90;;;;;;5077837;28;20036;-90
2022/07/12 09:10:49;;;;;;;3.78;2.17;;;23.10;99.90;;;;;;5060409;28;20045;-95
2022/07/12 09:13:15;;;;;;;4.25;2.65;;;22.90;99.90;;;;;;5110701;28;20051;-91
2022/07/12 09:15:40;;;;;;;3.20;2.30;;;22.70;99.90;;;;;;5093712;28;20041;-93
2022/07/12 09:18:15;;;;;;;3.88;2.88;;;22.80;99.90;;;;;;5093806;28;20040;-95
2022/07/12 09:20:43;;;;;;;4.80;2.70;;;22.70;99.90;;;;;;5112525;28;20040;-90
2022/07/12 09:23:11;;;;;;;3.15;2.20;;;22.70;99.90;;;;;;5109933;28;20044;-94
2022/07/12 09:25:47;;;;;;;4.95;2.90;;;22.90;99.90;;;;;;5077112;28;20091;-94
2022/07/12 09:28:13;;;;;;;6.55;2.80;;;23.00;99.90;;;;;;5094293;28;20132;-93
2022/07/12 09:30:52;;;;;;;4.30;2.63;;;23.10;99.90;;;;;;5094925;28;20072;-91
2022/07/12 09:36:09;;;;;;;4.57;3.15;;;23.20;99.90;;;;;;5077373;28;20091;-95
2022/07/12 09:38:39;;;;;;;3.20;2.70;;;23.10;99.90;;;;;;5075707;28;20040;-69
2022/07/12 09:41:08;;;;;;;3.08;2.78;;;23.20;99.90;;;;;;5076441;28;20135;-69
2022/07/12 09:43:35;;;;;;;3.72;2.75;;;23.40;99.90;;;;;;5076688;28;20083;-68
2022/07/12 09:46:01;;;;;;;3.17;2.33;;;23.70;99.90;;;;;;5076312;28;20045;-69
2022/07/12 09:48:28;;;;;;;3.88;2.70;;;23.90;99.90;;;;;;5076362;28;20044;-69
2022/07/12 09:50:57;;;;;;;4.18;3.05;;;23.80;99.90;;;;;;5076416;28;20072;-69
2022/07/12 09:53:37;;;;;;;3.20;2.47;;;24.00;99.90;;;;;;5076181;28;20087;-68
2022/07/12 09:56:06;;;;;;;2.95;2.38;;;24.00;99.90;;;;;;5076332;28;20392;-68
2022/07/12 09:58:51;;;;;;;6.45;3.03;;;24.20;99.90;;;;;;5076442;28;20082;-68
2022/07/12 10:01:17;;;;;;;4.85;2.65;;;24.40;99.90;;;;;;5076125;28;20368;-68
2022/07/12 10:03:44;;;;;;;3.22;2.20;;;24.60;99.90;;;;;;5076400;28;20120;-69
2022/07/12 10:06:12;;;;;;;4.82;2.63;;;24.80;99.90;;;;;;5076249;28;20491;-68
2022/07/12 10:08:37;;;;;;;2.72;2.05;;;24.90;99.90;;;;;;5108800;28;20123;-69
2022/07/12 10:11:05;;;;;;;5.65;2.70;;;25.20;99.90;;;;;;5076497;28;20116;-69
2022/07/12 10:13:32;;;;;;;2.60;2.22;;;25.60;99.90;;;;;;5076856;28;20098;-69
2022/07/12 10:16:00;;;;;;;2.75;2.33;;;25.80;99.90;;;;;;5080005;28;20040;-69
2022/07/12 10:18:27;;;;;;;3.33;2.58;;;25.70;99.90;;;;;;5080198;28;20040;-69
2022/07/12 10:20:53;;;;;;;4.20;2.08;;;25.80;99.90;;;;;;5079949;28;20119;-69
2022/07/12 10:23:36;;;;;;;2.85;1.90;;;25.80;99.90;;;;;;5079863;28;20116;-69
2022/07/12 10:26:14;;;;;;;1.95;1.70;;;25.90;99.90;;;;;;5079531;28;20057;-68
2022/07/12 10:28:59;;;;;;;2.13;1.92;;;25.80;99.90;;;;;;5080103;28;20072;-68
2022/07/12 10:31:30;;;;;;;2.08;1.50;;;25.40;99.90;;;;;;5079018;28;20044;-68
2022/07/12 10:34:12;;;;;;;4.05;1.13;;;25.60;99.90;;;;;;5079992;28;20120;-68
2022/07/12 10:37:08;;;;;;;2.42;1.60;;;25.80;99.90;;;;;;5079691;28;20048;-69
2022/07/12 10:39:33;;;;;;;1.08;0.90;;;26.20;99.90;;;;;;5071126;28;20067;-69
2022/07/12 10:42:05;;;;;;;2.05;1.25;;;26.50;99.90;;;;;;5079778;28;20040;-69
2022/07/12 10:44:36;;;;;;;2.05;1.20;;;26.30;99.90;;;;;;5079836;28;20209;-69
2022/07/12 10:47:03;;;;;;;3.80;1.40;;;26.60;99.90;;;;;;5079586;28;20040;-70
2022/07/12 10:49:30;;;;;;;1.35;1.15;;;26.90;99.90;;;;;;5079793;28;20123;-69
2022/07/12 10:52:11;;;;;;;1.88;1.20;;;27.20;99.90;;;;;;5078952;28;20329;-70
2022/07/12 10:55:08;;;;;;;2.92;1.02;;;27.20;99.90;;;;;;5079567;28;20067;-69
2022/07/12 10:57:40;;;;;;;;;;;27.10;99.90;;;;;;5079737;28;20095;-69
2022/07/12 11:00:08;;;;;;;3.38;1.08;;;27.20;99.90;;;;;;5079193;28;19923;-70
2022/07/12 11:02:34;;;;;;;1.75;0.85;;;27.20;99.90;;;;;;5079441;28;20046;-68
2022/07/12 11:05:00;;;;;;;1.48;0.90;;;27.30;99.90;;;;;;5079090;28;20360;-70
2022/07/12 11:07:27;;;;;;;1.48;0.90;;;27.50;99.90;;;;;;5079243;28;20474;-70
2022/07/12 11:09:54;;;;;;;2.72;0.70;;;28.00;99.90;;;;;;5078906;28;20041;-71
2022/07/12 11:12:20;;;;;;;2.92;0.90;;;28.10;99.90;;;;;;5079372;28;20170;-70
2022/07/12 11:14:46;;;;;;;2.60;1.10;;;28.00;99.90;;;;;;5079141;28;20040;-70
2022/07/12 11:17:13;;;;;;;1.30;0.85;;;28.00;99.90;;;;;;5079261;28;20047;-70
2022/07/12 11:19:39;;;;;;;2.38;0.93;;;28.30;99.90;;;;;;5078959;28;20082;-70
2022/07/12 11:22:05;;;;;;;3.30;1.00;;;28.50;99.90;;;;;;5078402;28;20302;-70
2022/07/12 11:24:32;;;;;;;1.95;1.42;;;28.20;99.90;;;;;;5078563;28;20046;-71
2022/07/12 11:27:01;;;;;;;1.95;0.80;;;27.90;99.90;;;;;;5111144;28;20044;-73
2022/07/12 11:29:27;;;;;;;1.38;0.80;;;28.00;99.90;;;;;;5079011;28;20073;-70
2022/07/12 11:32:03;;;;;;;1.00;0.80;;;28.10;99.90;;;;;;5078752;28;20125;-70
2022/07/12 11:34:28;;;;;;;1.95;0.90;;;28.30;99.90;;;;;;5111738;28;20038;-70
2022/07/12 11:36:56;;;;;;;1.35;0.93;;;28.40;99.90;;;;;;5094428;28;20051;-71
2022/07/12 11:39:40;;;;;;;3.30;0.85;;;28.20;99.90;;;;;;5077380;28;20044;-71
2022/07/12 11:42:07;;;;;;;2.65;0.70;;;28.10;99.90;;;;;;5078636;28;20432;-70
2022/07/12 11:44:49;;;;;;;3.03;1.00;;;28.20;99.90;;;;;;5078432;28;20115;-71
2022/07/12 11:47:20;;;;;;;2.03;0.98;;;28.60;99.90;;;;;;5078748;28;20051;-70
2022/07/12 11:49:48;;;;;;;2.47;0.90;;;28.60;99.90;;;;;;5078443;28;20433;-70
2022/07/12 11:52:18;;;;;;;4.05;1.38;;;28.40;99.90;;;;;;5080425;28;20041;-71
2022/07/12 11:54:46;;;;;;;1.00;0.82;;;28.50;99.90;;;;;;5078584;28;20036;-71
2022/07/12 11:57:12;;;;;;;3.00;1.05;;;28.60;99.90;;;;;;5078302;28;20087;-70
2022/07/12 11:59:38;;;;;;;3.20;1.15;;;28.60;99.90;;;;;;5078178;28;20044;-71
2022/07/12 12:02:05;;;;;;;1.25;0.80;;;28.70;99.90;;;;;;5078229;28;20333;-71
2022/07/12 12:04:31;;;;;;;0.93;0.73;;;28.80;99.90;;;;;;5078265;28;20040;-71
2022/07/12 12:06:57;;;;;;;2.55;0.70;;;28.90;99.90;;;;;;5078158;28;20040;-70
2022/07/12 12:09:23;;;;;;;1.73;0.90;;;29.10;99.90;;;;;;5078091;28;20063;-75
2022/07/12 12:11:48;;;;;;;1.52;0.82;;;29.00;99.90;;;;;;5076937;28;20036;-72
2022/07/12 12:14:14;;;;;;;2.22;0.70;;;29.00;99.90;;;;;;5077887;28;20036;-72
2022/07/12 12:16:40;;;;;;;1.17;0.70;;;29.60;99.90;;;;;;5076798;28;20076;-72
2022/07/12 12:19:11;;;;;;;2.97;0.65;;;30.00;99.90;;;;;;5110825;28;20047;-72
2022/07/12 12:21:37;;;;;;;1.27;0.90;;;30.00;99.90;;;;;;5077427;28;20070;-71
2022/07/12 12:24:10;;;;;;;2.35;0.70;;;29.80;99.90;;;;;;5076629;28;20090;-76
2022/07/12 12:26:36;;;;;;;2.20;0.63;;;29.90;99.90;;;;;;5110391;28;20067;-72
2022/07/12 12:29:02;;;;;;;1.38;0.50;;;29.40;99.90;;;;;;5077519;28;20040;-72
2022/07/12 12:31:28;;;;;;;6.50;1.83;;;29.30;99.90;;;;;;5077436;28;20044;-71
2022/07/12 12:33:58;;;;;;;5.53;0.57;;;29.50;99.90;;;;;;5076462;28;20131;-71
2022/07/12 12:36:29;;;;;;;0.55;0.32;;;29.50;99.90;;;;;;5077585;28;20048;-72
2022/07/12 12:39:02;;;;;;;0.65;0.40;;;30.00;99.90;;;;;;5078239;28;20047;-72
2022/07/12 12:41:30;;;;;;;0.80;0.50;;;30.60;99.90;;;;;;5077497;28;20325;-70
2022/07/12 12:44:07;;;;;;;1.08;0.40;;;31.10;99.90;;;;;;5077466;28;20307;-70
2022/07/12 12:49:50;;;;;;;1.83;0.47;;;30.90;99.90;;;;;;5077467;28;20056;-72
2022/07/12 12:52:17;;;;;;;2.20;0.30;;;31.20;99.90;;;;;;5076711;28;20036;-71
2022/07/12 12:54:42;;;;;;;2.35;0.57;;;31.10;99.90;;;;;;5077238;28;20040;-75
2022/07/12 12:57:09;;;;;;;2.15;0.75;;;31.30;99.90;;;;;;5109928;28;20535;-72
2022/07/12 12:59:36;;;;;;;1.42;0.50;;;31.30;99.90;;;;;;5075880;28;20115;-71
2022/07/12 13:02:02;;;;;;;2.95;0.55;;;31.00;99.90;;;;;;5095095;28;20115;-72